Time;durP1;ratioP1;P1;durP2;ratioP2;P2;SDS_P1;SDS_P2;PMS_P1;PMS_P2;Temp;Humidity;BMP_temperature;BMP_pressure;BME280_temperature;BME280_humidity;BME280_pressure;Samples;Min_cycle;Max_cycle;Signal;HPM_P1;HPM_P2
2022/03/03 00:00:52;;;;;;;30.48;18.02;;;0.40;4.50;;;;;;7360232;19;20039;-62
2022/03/03 00:03:25;;;;;;;30.63;18.05;;;0.30;4.20;;;;;;7380953;19;20046;-61
2022/03/03 00:05:56;;;;;;;30.73;18.35;;;0.30;4.60;;;;;;7363323;19;20009;-61
2022/03/03 00:08:25;;;;;;;32.33;19.38;;;0.20;5.40;;;;;;7363075;19;20469;-61
2022/03/03 00:10:59;;;;;;;31.42;18.30;;;0.20;5.90;;;;;;7357854;19;20043;-61
2022/03/03 00:13:29;;;;;;;29.08;17.55;;;0.10;6.40;;;;;;7361931;19;21381;-61
2022/03/03 00:15:58;;;;;;;34.35;19.95;;;0.20;7.00;;;;;;7363538;19;20018;-62
2022/03/03 00:18:31;;;;;;;36.55;18.77;;;0.00;6.80;;;;;;7384146;19;20099;-61
2022/03/03 00:21:01;;;;;;;32.55;19.30;;;-0.10;7.80;;;;;;7359306;19;21117;-60
2022/03/03 00:23:32;;;;;;;35.88;20.63;;;-0.10;9.30;;;;;;7360684;19;20014;-62
2022/03/03 00:26:02;;;;;;;40.00;20.92;;;-0.10;9.90;;;;;;7363629;19;20010;-61
2022/03/03 00:28:32;;;;;;;35.50;20.90;;;-0.20;11.30;;;;;;7363025;19;20824;-59
2022/03/03 00:31:01;;;;;;;32.50;19.92;;;-0.20;11.90;;;;;;7356990;19;20010;-61
2022/03/03 00:33:34;;;;;;;36.28;19.27;;;-0.20;11.80;;;;;;7381532;19;20018;-61
2022/03/03 00:36:04;;;;;;;36.38;20.15;;;-0.20;11.90;;;;;;7363448;19;20081;-60
2022/03/03 00:38:34;;;;;;;35.42;20.65;;;-0.20;11.80;;;;;;7361635;19;20026;-60
2022/03/03 00:41:04;;;;;;;38.08;19.48;;;-0.30;11.60;;;;;;7356320;19;20527;-63
2022/03/03 00:43:34;;;;;;;34.42;20.80;;;-0.40;12.10;;;;;;7359475;19;20040;-61
2022/03/03 00:46:03;;;;;;;38.30;21.45;;;-0.40;12.10;;;;;;7363360;19;20018;-61
2022/03/03 00:48:36;;;;;;;37.58;21.75;;;-0.50;12.60;;;;;;7381120;19;20010;-61
2022/03/03 00:51:07;;;;;;;39.28;21.70;;;-0.50;13.10;;;;;;7357096;19;20036;-60
2022/03/03 00:53:37;;;;;;;36.38;20.92;;;-0.50;14.10;;;;;;7359521;19;20086;-60
2022/03/03 00:56:08;;;;;;;37.85;22.30;;;-0.50;15.10;;;;;;7365010;19;20863;-61
2022/03/03 00:58:38;;;;;;;34.67;19.77;;;-0.40;15.30;;;;;;7364252;19;20404;-61
2022/03/03 01:01:08;;;;;;;45.10;21.20;;;-0.40;14.80;;;;;;7357148;19;20000;-61
2022/03/03 01:03:41;;;;;;;36.63;21.27;;;-0.40;15.00;;;;;;7380486;19;20065;-61
2022/03/03 01:06:12;;;;;;;32.45;20.55;;;-0.40;15.20;;;;;;7363638;19;20006;-60
2022/03/03 01:08:42;;;;;;;41.63;23.27;;;-0.50;15.80;;;;;;7362801;19;20010;-60
2022/03/03 01:11:12;;;;;;;36.72;21.10;;;-0.50;16.10;;;;;;7354812;19;20070;-60
2022/03/03 01:13:41;;;;;;;34.17;21.48;;;-0.50;16.20;;;;;;7358951;19;20353;-59
2022/03/03 01:16:12;;;;;;;37.85;21.63;;;-0.50;17.00;;;;;;7364388;19;20014;-61
2022/03/03 01:18:45;;;;;;;34.35;21.60;;;-0.50;16.90;;;;;;7384788;19;20035;-60
2022/03/03 01:21:15;;;;;;;39.80;20.85;;;-0.50;16.90;;;;;;7358073;19;20014;-61
2022/03/03 01:23:45;;;;;;;37.03;20.70;;;-0.50;17.20;;;;;;7355012;19;20019;-60
2022/03/03 01:26:15;;;;;;;38.00;21.75;;;-0.50;17.20;;;;;;7361358;19;20097;-61
2022/03/03 01:28:45;;;;;;;36.92;20.83;;;-0.50;17.40;;;;;;7363189;19;20007;-60
2022/03/03 01:31:16;;;;;;;36.35;20.98;;;-0.50;17.30;;;;;;7358322;19;20017;-60
2022/03/03 01:33:54;;;;;;;33.45;20.77;;;-0.50;17.10;;;;;;7354865;19;20018;-60
2022/03/03 01:36:24;;;;;;;36.97;21.88;;;-0.50;17.10;;;;;;7382829;19;20078;-60
2022/03/03 01:38:53;;;;;;;37.45;21.02;;;-0.50;16.70;;;;;;7360664;19;20042;-60
2022/03/03 01:41:24;;;;;;;37.22;21.73;;;-0.60;16.10;;;;;;7356996;19;20089;-60
2022/03/03 01:43:54;;;;;;;41.58;22.42;;;-0.60;16.60;;;;;;7359169;19;20017;-60
2022/03/03 01:46:24;;;;;;;39.08;22.58;;;-0.60;16.90;;;;;;7359573;19;20035;-60
2022/03/03 01:48:56;;;;;;;46.97;24.35;;;-0.60;16.80;;;;;;7360063;19;20095;-60
2022/03/03 01:51:26;;;;;;;42.42;22.48;;;-0.70;16.90;;;;;;7378604;19;20014;-60
2022/03/03 01:53:56;;;;;;;41.05;23.83;;;-0.80;17.20;;;;;;7359646;19;20464;-60
2022/03/03 01:56:26;;;;;;;42.65;22.90;;;-0.70;17.60;;;;;;7361485;19;20395;-61
2022/03/03 01:58:56;;;;;;;39.45;23.00;;;-0.70;17.40;;;;;;7360449;19;20599;-61
2022/03/03 02:01:26;;;;;;;46.10;22.60;;;-0.70;17.50;;;;;;7355961;19;20017;-62
2022/03/03 02:03:59;;;;;;;41.50;20.90;;;-0.80;17.30;;;;;;7358072;19;20535;-60
2022/03/03 02:06:29;;;;;;;35.47;21.42;;;-0.90;17.40;;;;;;7384762;19;20169;-61
2022/03/03 02:08:59;;;;;;;40.55;21.15;;;-0.90;18.30;;;;;;7358385;19;20501;-59
2022/03/03 02:11:30;;;;;;;36.03;22.05;;;-0.80;18.80;;;;;;7354153;19;20110;-59
2022/03/03 02:14:00;;;;;;;35.28;22.55;;;-0.80;18.30;;;;;;7358819;19;20010;-60
2022/03/03 02:16:30;;;;;;;42.03;22.58;;;-0.80;18.30;;;;;;7361151;19;20509;-60
2022/03/03 02:19:02;;;;;;;39.80;21.58;;;-0.90;18.30;;;;;;7358687;19;20490;-60
2022/03/03 02:21:35;;;;;;;39.83;22.92;;;-0.90;18.20;;;;;;7378095;19;20006;-60
2022/03/03 02:24:07;;;;;;;47.47;23.83;;;-0.90;18.50;;;;;;7363791;19;20028;-60
2022/03/03 02:26:39;;;;;;;45.72;24.40;;;-0.90;18.50;;;;;;7369062;19;20007;-60
2022/03/03 02:29:09;;;;;;;42.78;22.27;;;-0.90;19.20;;;;;;7367110;19;20086;-60
2022/03/03 02:31:39;;;;;;;36.03;21.90;;;-0.90;18.90;;;;;;7361916;19;20081;-61
2022/03/03 02:34:09;;;;;;;35.95;20.83;;;-1.00;18.70;;;;;;7363893;19;20082;-61
2022/03/03 02:36:42;;;;;;;38.45;22.35;;;-1.10;19.20;;;;;;7390216;19;20021;-60
2022/03/03 02:39:12;;;;;;;37.80;21.35;;;-1.10;19.20;;;;;;7368092;19;20037;-61
2022/03/03 02:41:42;;;;;;;39.55;22.25;;;-1.10;20.00;;;;;;7360591;19;20500;-59
2022/03/03 02:44:12;;;;;;;34.33;21.20;;;-1.10;20.10;;;;;;7363336;19;20078;-60
2022/03/03 02:46:42;;;;;;;37.05;22.83;;;-1.20;20.10;;;;;;7366955;19;20010;-61
2022/03/03 02:49:12;;;;;;;37.20;19.77;;;-1.20;20.40;;;;;;7369464;19;20021;-61
2022/03/03 02:51:44;;;;;;;38.80;21.70;;;-1.10;20.80;;;;;;7384413;19;20014;-61
2022/03/03 02:54:14;;;;;;;34.78;21.23;;;-1.10;20.60;;;;;;7363863;19;20011;-60
2022/03/03 02:59:32;;;;;;;35.50;20.60;;;-1.20;20.30;;;;;;7365533;19;20040;-60
2022/03/03 03:02:02;;;;;;;35.10;21.80;;;-1.20;20.50;;;;;;7362611;19;20124;-60
2022/03/03 03:04:41;;;;;;;36.80;22.15;;;-1.20;20.40;;;;;;7365885;19;20104;-60
2022/03/03 03:07:13;;;;;;;35.40;22.33;;;-1.20;20.70;;;;;;7365739;19;20006;-61
2022/03/03 03:09:43;;;;;;;35.95;22.75;;;-1.10;20.60;;;;;;7383711;19;20492;-61
2022/03/03 03:12:13;;;;;;;37.45;23.13;;;-1.10;20.50;;;;;;7362029;19;20011;-61
2022/03/03 03:14:43;;;;;;;39.90;23.90;;;-1.10;20.10;;;;;;7365302;19;20024;-60
2022/03/03 03:17:13;;;;;;;39.10;21.45;;;-1.10;20.00;;;;;;7364648;19;20009;-61
2022/03/03 03:19:43;;;;;;;36.05;21.52;;;-0.90;19.30;;;;;;7362355;19;20490;-60
2022/03/03 03:22:15;;;;;;;35.60;19.85;;;-0.90;17.10;;;;;;7361333;19;20077;-61
2022/03/03 03:24:45;;;;;;;30.33;18.45;;;-0.80;15.30;;;;;;7386846;19;20045;-60
2022/03/03 03:27:15;;;;;;;32.38;19.67;;;-0.80;13.80;;;;;;7366884;19;20014;-61
2022/03/03 03:29:45;;;;;;;34.08;18.95;;;-0.70;11.40;;;;;;7361367;19;20010;-60
2022/03/03 03:32:15;;;;;;;30.95;18.33;;;-0.70;10.00;;;;;;7360198;19;20054;-59
2022/03/03 03:34:45;;;;;;;29.95;18.55;;;-0.70;9.70;;;;;;7363835;19;20094;-60
2022/03/03 03:37:17;;;;;;;30.58;18.65;;;-0.70;9.40;;;;;;7366618;19;20022;-61
2022/03/03 03:39:47;;;;;;;34.60;19.70;;;-0.80;8.90;;;;;;7370444;19;20786;-62
2022/03/03 03:42:17;;;;;;;34.53;19.10;;;-0.70;8.90;;;;;;7381205;19;20020;-61
2022/03/03 03:44:47;;;;;;;30.95;19.23;;;-0.70;9.10;;;;;;7363238;19;20096;-60
2022/03/03 03:47:20;;;;;;;32.97;18.88;;;-0.80;9.40;;;;;;7365415;19;20079;-61
2022/03/03 03:49:50;;;;;;;33.13;18.67;;;-0.90;9.60;;;;;;7360903;19;20082;-61
2022/03/03 03:52:22;;;;;;;32.17;19.25;;;-0.90;10.30;;;;;;7359454;19;20010;-61
2022/03/03 03:54:52;;;;;;;31.98;19.00;;;-0.90;11.10;;;;;;7364135;19;20035;-61
2022/03/03 03:57:22;;;;;;;31.08;18.52;;;-0.90;12.10;;;;;;7388598;19;20014;-60
2022/03/03 03:59:52;;;;;;;30.67;18.10;;;-0.90;12.40;;;;;;7360559;19;20561;-60
2022/03/03 04:02:22;;;;;;;34.95;19.17;;;-0.90;12.40;;;;;;7355558;19;20030;-61
2022/03/03 04:04:52;;;;;;;34.70;19.67;;;-0.80;12.40;;;;;;7363818;19;20014;-59
2022/03/03 04:07:25;;;;;;;31.10;18.80;;;-0.90;11.70;;;;;;7366207;19;20022;-61
2022/03/03 04:09:55;;;;;;;33.95;18.77;;;-0.90;11.80;;;;;;7362844;19;20074;-61
2022/03/03 04:12:25;;;;;;;31.20;18.95;;;-0.90;11.70;;;;;;7380843;19;20006;-59
2022/03/03 04:14:55;;;;;;;35.67;20.10;;;-0.90;11.40;;;;;;7363354;19;20011;-60
2022/03/03 04:17:25;;;;;;;31.05;19.38;;;-0.90;10.80;;;;;;7365409;19;20090;-61
2022/03/03 04:19:56;;;;;;;33.95;19.10;;;-1.00;10.30;;;;;;7365229;19;20085;-61
2022/03/03 04:22:28;;;;;;;30.45;17.80;;;-0.90;9.60;;;;;;7357500;19;20868;-61
2022/03/03 04:24:58;;;;;;;35.40;20.23;;;-1.00;9.30;;;;;;7359243;19;20006;-60
2022/03/03 04:27:29;;;;;;;31.27;17.90;;;-1.10;9.50;;;;;;7378090;19;20047;-60
2022/03/03 04:29:58;;;;;;;33.47;19.40;;;-1.10;9.70;;;;;;7354803;19;20469;-59
2022/03/03 04:32:29;;;;;;;35.30;19.50;;;-1.10;10.30;;;;;;7346999;19;20014;-59
2022/03/03 04:34:59;;;;;;;32.60;18.88;;;-1.20;10.30;;;;;;7353254;19;20530;-60
2022/03/03 04:37:33;;;;;;;36.35;19.83;;;-1.20;10.60;;;;;;7355614;19;20029;-59
2022/03/03 04:40:03;;;;;;;33.08;19.13;;;-1.20;11.50;;;;;;7364703;19;20018;-60
2022/03/03 04:42:33;;;;;;;34.20;19.90;;;-1.20;11.30;;;;;;7378959;19;20015;-60
2022/03/03 04:45:03;;;;;;;34.10;20.48;;;-1.10;11.70;;;;;;7361234;19;20028;-60
2022/03/03 04:47:33;;;;;;;40.97;21.52;;;-1.00;11.30;;;;;;7361759;19;20007;-60
2022/03/03 04:50:03;;;;;;;39.13;20.15;;;-1.00;11.10;;;;;;7364474;19;20014;-60
2022/03/03 04:52:36;;;;;;;35.75;21.30;;;-1.00;10.80;;;;;;7356596;19;20006;-60
2022/03/03 04:55:07;;;;;;;33.58;20.15;;;-1.10;10.90;;;;;;7363897;19;20086;-61
2022/03/03 04:57:37;;;;;;;38.08;20.83;;;-1.10;11.90;;;;;;7383616;19;20502;-60
2022/03/03 05:00:09;;;;;;;32.97;19.45;;;-1.10;11.40;;;;;;7362115;19;20039;-58
2022/03/03 05:02:39;;;;;;;36.38;18.75;;;-1.10;11.20;;;;;;7355777;19;20082;-60
2022/03/03 05:05:10;;;;;;;37.38;19.58;;;-1.20;10.90;;;;;;7363378;19;20014;-60
2022/03/03 05:07:42;;;;;;;40.80;21.48;;;-1.20;11.80;;;;;;7361948;19;20506;-60
2022/03/03 05:10:13;;;;;;;37.63;19.58;;;-1.10;12.10;;;;;;7363317;19;20012;-61
2022/03/03 05:12:43;;;;;;;35.88;20.35;;;-1.10;11.20;;;;;;7377825;19;20031;-60
2022/03/03 05:15:13;;;;;;;37.33;19.85;;;-1.10;11.60;;;;;;7362621;19;20018;-60
2022/03/03 05:17:45;;;;;;;36.42;20.45;;;-1.10;12.20;;;;;;7361432;19;20010;-60
2022/03/03 05:20:15;;;;;;;33.53;20.05;;;-1.20;11.70;;;;;;7363050;19;20054;-60
2022/03/03 05:22:48;;;;;;;37.00;20.33;;;-1.10;11.70;;;;;;7357107;19;20018;-60
2022/03/03 05:25:24;;;;;;;34.63;19.92;;;-1.10;11.60;;;;;;7361787;19;20018;-60
2022/03/03 05:28:03;;;;;;;38.67;21.25;;;-1.10;11.20;;;;;;7362570;19;20032;-60
2022/03/03 05:30:33;;;;;;;38.13;22.45;;;-1.10;11.70;;;;;;7380330;19;20453;-60
2022/03/03 05:33:09;;;;;;;35.15;20.17;;;-1.10;11.00;;;;;;7357759;19;20049;-59
2022/03/03 05:35:39;;;;;;;34.00;20.23;;;-1.10;10.40;;;;;;7361174;19;20466;-60
2022/03/03 05:38:12;;;;;;;33.67;20.35;;;-1.20;9.80;;;;;;7361287;19;20046;-59
2022/03/03 05:40:41;;;;;;;35.92;20.80;;;-1.20;10.30;;;;;;7359021;19;20086;-60
2022/03/03 05:43:12;;;;;;;33.67;19.58;;;-1.20;11.00;;;;;;7357095;19;20013;-61
2022/03/03 05:45:42;;;;;;;34.20;20.23;;;-1.20;10.90;;;;;;7381520;19;20522;-60
2022/03/03 05:48:13;;;;;;;36.97;20.40;;;-1.30;11.10;;;;;;7360749;19;20025;-60
2022/03/03 05:50:43;;;;;;;38.45;20.10;;;-1.40;12.00;;;;;;7357267;19;21002;-59
2022/03/03 05:53:16;;;;;;;33.67;20.15;;;-1.40;12.00;;;;;;7357887;19;20017;-59
2022/03/03 05:55:47;;;;;;;39.13;20.92;;;-1.40;12.00;;;;;;7360624;19;20094;-60
2022/03/03 05:58:19;;;;;;;32.47;20.92;;;-1.40;12.50;;;;;;7367830;19;20021;-60
2022/03/03 06:00:50;;;;;;;38.00;19.95;;;-1.40;13.50;;;;;;7363716;19;20474;-61
2022/03/03 06:03:22;;;;;;;39.05;21.13;;;-1.40;13.10;;;;;;7388101;19;20018;-60
2022/03/03 06:05:54;;;;;;;41.47;20.67;;;-1.30;13.30;;;;;;7365964;19;20014;-61
2022/03/03 06:08:35;;;;;;;37.08;20.55;;;-1.30;12.90;;;;;;7366792;19;20007;-59
2022/03/03 06:11:07;;;;;;;37.83;21.42;;;-1.10;11.90;;;;;;7363091;19;20011;-60
2022/03/03 06:13:41;;;;;;;38.88;21.25;;;-1.00;10.30;;;;;;7364948;19;20014;-64
2022/03/03 06:16:12;;;;;;;35.20;20.45;;;-0.80;8.90;;;;;;7369808;19;20016;-60
2022/03/03 06:18:42;;;;;;;36.40;20.90;;;-0.90;8.30;;;;;;7387288;19;20003;-60
2022/03/03 06:21:12;;;;;;;35.25;20.55;;;-1.10;8.70;;;;;;7360707;19;20018;-60
2022/03/03 06:23:45;;;;;;;36.10;19.88;;;-1.30;9.70;;;;;;7361619;19;20070;-59
2022/03/03 06:26:19;;;;;;;39.67;21.15;;;-1.30;11.10;;;;;;7368479;19;20014;-60
2022/03/03 06:28:49;;;;;;;34.53;19.75;;;-1.40;11.60;;;;;;7368661;19;20006;-61
2022/03/03 06:31:19;;;;;;;34.40;21.10;;;-1.40;11.50;;;;;;7361970;19;20018;-60
2022/03/03 06:33:49;;;;;;;38.67;20.95;;;-1.50;11.90;;;;;;7361603;19;20050;-61
2022/03/03 06:36:19;;;;;;;40.03;20.90;;;-1.40;12.00;;;;;;7389987;19;20070;-61
2022/03/03 06:38:51;;;;;;;32.78;19.23;;;-1.30;11.90;;;;;;7368448;19;20011;-61
2022/03/03 06:41:22;;;;;;;36.60;21.85;;;-1.20;12.00;;;;;;7360145;19;20541;-61
2022/03/03 06:43:52;;;;;;;46.42;22.33;;;-1.10;11.80;;;;;;7360387;19;20010;-59
2022/03/03 06:46:22;;;;;;;36.30;21.73;;;-0.80;11.00;;;;;;7367326;19;20006;-60
2022/03/03 06:48:52;;;;;;;36.38;20.55;;;-0.70;8.90;;;;;;7366486;19;20014;-60
2022/03/03 06:51:24;;;;;;;41.85;21.15;;;-0.70;7.50;;;;;;7383742;19;20070;-60
2022/03/03 06:54:03;;;;;;;40.63;22.60;;;-0.50;6.80;;;;;;7360963;19;20029;-60
2022/03/03 06:56:37;;;;;;;41.47;21.45;;;-0.50;6.00;;;;;;7366193;19;20054;-62
2022/03/03 06:59:07;;;;;;;40.47;21.40;;;-0.40;5.50;;;;;;7367020;19;20041;-60
2022/03/03 07:01:37;;;;;;;45.75;21.70;;;-0.30;5.60;;;;;;7362539;19;20097;-60
2022/03/03 07:04:08;;;;;;;39.03;21.40;;;-0.20;5.00;;;;;;7361459;19;20048;-62
2022/03/03 07:06:39;;;;;;;38.92;21.25;;;-0.10;4.20;;;;;;7386183;19;20062;-61
2022/03/03 07:09:12;;;;;;;36.95;22.10;;;0.00;3.30;;;;;;7364938;19;20018;-61
2022/03/03 07:11:44;;;;;;;34.38;18.98;;;0.00;2.40;;;;;;7361074;19;20034;-59
2022/03/03 07:14:14;;;;;;;37.42;19.80;;;0.20;2.20;;;;;;7363439;19;20014;-60
2022/03/03 07:16:46;;;;;;;34.03;19.75;;;0.20;1.20;;;;;;7366189;19;20074;-60
2022/03/03 07:19:37;;;;;;;40.67;20.15;;;0.20;1.40;;;;;;7364637;19;20074;-61
2022/03/03 07:22:17;;;;;;;31.52;19.35;;;0.30;1.00;;;;;;7356138;19;20045;-59
2022/03/03 07:24:57;;;;;;;48.10;19.55;;;0.30;1.00;;;;;;7377161;19;20441;-62
2022/03/03 07:27:28;;;;;;;35.63;20.05;;;0.40;1.00;;;;;;7387054;19;20011;-60
2022/03/03 07:30:00;;;;;;;32.60;19.15;;;0.60;1.00;;;;;;7363587;19;20014;-60
2022/03/03 07:32:36;;;;;;;31.80;18.20;;;0.20;1.10;;;;;;7355141;19;20078;-60
2022/03/03 07:35:10;;;;;;;39.97;20.30;;;0.10;2.30;;;;;;7364006;19;20549;-61
2022/03/03 07:37:46;;;;;;;40.17;21.08;;;0.10;2.40;;;;;;7366150;19;20543;-59
2022/03/03 07:40:19;;;;;;;33.92;19.73;;;0.10;2.80;;;;;;7366803;19;20021;-61
2022/03/03 07:42:55;;;;;;;34.22;17.90;;;0.20;2.10;;;;;;7357944;19;20800;-61
2022/03/03 07:45:25;;;;;;;31.63;18.20;;;0.20;2.30;;;;;;7384256;19;20330;-60
2022/03/03 07:47:57;;;;;;;32.60;16.75;;;0.20;1.50;;;;;;7362944;19;20372;-60
2022/03/03 07:50:28;;;;;;;35.47;19.15;;;0.10;1.00;;;;;;7362859;19;20017;-60
2022/03/03 07:52:59;;;;;;;31.52;18.70;;;0.20;1.00;;;;;;7360161;19;20036;-59
2022/03/03 07:55:32;;;;;;;37.58;18.13;;;0.40;1.00;;;;;;7363479;19;20015;-60
2022/03/03 07:58:04;;;;;;;30.45;17.90;;;0.60;1.00;;;;;;7363538;19;20018;-60
2022/03/03 08:00:36;;;;;;;32.30;17.58;;;0.60;1.00;;;;;;7382006;19;20014;-61
2022/03/03 08:03:09;;;;;;;33.67;19.10;;;0.80;1.00;;;;;;7361949;19;21192;-60
2022/03/03 08:05:40;;;;;;;33.88;19.67;;;1.00;1.00;;;;;;7364158;19;20089;-61
2022/03/03 08:08:14;;;;;;;37.63;19.75;;;1.20;1.00;;;;;;7364522;19;20011;-61
2022/03/03 08:10:48;;;;;;;37.75;20.20;;;1.40;1.00;;;;;;7358437;19;20014;-60
2022/03/03 08:13:20;;;;;;;33.83;19.52;;;1.60;1.00;;;;;;7360811;19;20035;-61
2022/03/03 08:15:50;;;;;;;80.55;40.65;;;1.80;1.00;;;;;;7365432;19;20014;-61
2022/03/03 08:18:20;;;;;;;30.08;18.75;;;2.20;1.00;;;;;;7382957;19;20018;-62
2022/03/03 08:20:50;;;;;;;33.83;19.35;;;2.30;1.00;;;;;;7356079;19;20013;-60
2022/03/03 08:23:25;;;;;;;31.92;18.55;;;2.40;1.00;;;;;;7360766;19;20011;-61
2022/03/03 08:25:59;;;;;;;28.25;17.60;;;2.50;1.00;;;;;;7364997;19;20098;-60
2022/03/03 08:28:30;;;;;;;29.65;18.77;;;2.60;1.00;;;;;;7361942;19;20823;-59
2022/03/03 08:31:03;;;;;;;31.90;17.95;;;2.50;1.00;;;;;;7359178;19;20627;-61
2022/03/03 08:33:42;;;;;;;29.52;18.58;;;2.60;1.00;;;;;;7380722;19;20026;-60
2022/03/03 08:36:20;;;;;;;31.65;18.10;;;2.70;1.00;;;;;;7363858;19;20078;-61
2022/03/03 08:38:53;;;;;;;34.38;19.20;;;2.80;1.00;;;;;;7363313;19;20073;-61
2022/03/03 08:41:26;;;;;;;32.85;17.65;;;2.70;1.00;;;;;;7358869;19;20024;-61
2022/03/03 08:44:05;;;;;;;31.40;18.13;;;2.70;1.00;;;;;;7357506;19;20011;-59
2022/03/03 08:46:37;;;;;;;29.77;18.25;;;2.80;1.00;;;;;;7362483;19;20010;-61
2022/03/03 08:49:09;;;;;;;32.60;17.83;;;3.00;1.00;;;;;;7359981;19;20135;-61
2022/03/03 08:51:40;;;;;;;35.80;18.80;;;3.00;1.00;;;;;;7381237;19;20029;-61
2022/03/03 08:54:11;;;;;;;28.23;17.27;;;3.30;1.00;;;;;;7358253;19;20010;-60
2022/03/03 08:56:43;;;;;;;31.85;18.10;;;3.40;1.00;;;;;;7361462;19;20006;-61
2022/03/03 08:59:13;;;;;;;29.67;17.70;;;3.30;1.00;;;;;;7361228;19;20079;-60
2022/03/03 09:01:43;;;;;;;29.33;17.20;;;3.60;1.00;;;;;;7357225;19;20011;-60
2022/03/03 09:04:13;;;;;;;32.75;17.88;;;3.50;1.00;;;;;;7360262;19;20011;-60
2022/03/03 09:06:43;;;;;;;32.80;17.05;;;3.70;1.00;;;;;;7383693;19;20024;-61
2022/03/03 09:09:13;;;;;;;30.95;17.17;;;3.70;1.00;;;;;;7360237;19;20014;-60
2022/03/03 09:11:45;;;;;;;27.85;16.25;;;3.90;1.00;;;;;;7357178;19;20010;-60
2022/03/03 09:14:15;;;;;;;28.17;16.88;;;4.00;1.00;;;;;;7359207;19;20002;-61
2022/03/03 09:16:45;;;;;;;26.95;16.35;;;4.30;1.00;;;;;;7362685;19;20077;-61
2022/03/03 09:19:15;;;;;;;27.05;16.23;;;4.50;1.00;;;;;;7358957;19;20462;-61
2022/03/03 09:21:45;;;;;;;26.38;16.08;;;4.50;1.00;;;;;;7377719;19;20014;-61
2022/03/03 09:24:15;;;;;;;24.67;15.45;;;4.60;1.00;;;;;;7359049;19;20023;-61
2022/03/03 09:26:48;;;;;;;23.45;15.82;;;4.70;1.00;;;;;;7362955;19;20014;-61
2022/03/03 09:29:18;;;;;;;31.75;16.25;;;4.80;1.00;;;;;;7360451;19;20081;-61
2022/03/03 09:31:48;;;;;;;27.63;16.25;;;4.90;1.00;;;;;;7358325;19;20381;-61
2022/03/03 09:34:18;;;;;;;30.05;16.52;;;5.00;1.00;;;;;;7365956;19;20031;-61
2022/03/03 09:36:51;;;;;;;26.58;16.38;;;4.90;1.00;;;;;;7368376;19;20347;-61
2022/03/03 09:39:21;;;;;;;27.00;16.17;;;5.10;1.00;;;;;;7387146;19;20094;-61
2022/03/03 09:41:54;;;;;;;26.13;16.88;;;5.10;1.00;;;;;;7359500;19;20381;-60
2022/03/03 09:44:24;;;;;;;31.08;17.42;;;5.10;1.00;;;;;;7365597;19;20020;-60
2022/03/03 09:46:55;;;;;;;28.35;17.38;;;5.20;1.00;;;;;;7370040;19;20021;-61
2022/03/03 09:49:26;;;;;;;29.80;16.85;;;5.40;1.00;;;;;;7367323;19;20019;-62
2022/03/03 09:51:56;;;;;;;27.13;15.18;;;5.50;1.00;;;;;;7358909;19;20081;-60
2022/03/03 09:54:26;;;;;;;26.63;16.85;;;5.50;1.00;;;;;;7387553;19;20027;-61
2022/03/03 09:56:59;;;;;;;29.98;16.88;;;5.70;1.00;;;;;;7367601;19;20027;-60
2022/03/03 09:59:29;;;;;;;29.30;17.63;;;5.70;1.00;;;;;;7368714;19;20117;-61
2022/03/03 10:02:05;;;;;;;28.23;17.00;;;5.70;1.00;;;;;;7360554;19;20015;-61
2022/03/03 10:04:35;;;;;;;25.67;16.65;;;5.80;1.00;;;;;;7366675;19;20007;-61
2022/03/03 10:07:07;;;;;;;26.77;16.65;;;5.80;1.00;;;;;;7368394;19;20081;-61
2022/03/03 10:09:59;;;;;;;29.15;17.60;;;5.80;1.00;;;;;;7389390;19;20757;-61
2022/03/03 10:12:47;;;;;;;30.95;17.65;;;5.90;1.00;;;;;;7359622;19;20011;-61
2022/03/03 10:15:19;;;;;;;25.45;16.80;;;6.00;1.00;;;;;;7366089;19;20011;-61
2022/03/03 10:17:49;;;;;;;29.33;18.38;;;6.10;1.00;;;;;;7365231;19;20074;-61
2022/03/03 10:20:19;;;;;;;28.60;17.13;;;6.20;1.00;;;;;;7364228;19;20007;-61
2022/03/03 10:22:57;;;;;;;25.83;16.95;;;6.10;1.00;;;;;;7361486;19;20699;-62
2022/03/03 10:25:32;;;;;;;36.05;18.50;;;6.30;1.00;;;;;;7365763;19;20010;-61
2022/03/03 10:28:15;;;;;;;27.90;18.10;;;6.50;1.00;;;;;;7363876;19;20086;-60
2022/03/03 10:30:57;;;;;;;32.25;18.35;;;6.40;1.00;;;;;;7381176;19;20483;-62
2022/03/03 10:33:31;;;;;;;25.75;17.10;;;6.50;1.00;;;;;;7359473;19;20007;-61
2022/03/03 10:36:11;;;;;;;30.48;18.30;;;6.50;1.00;;;;;;7364425;19;20138;-61
2022/03/03 10:38:50;;;;;;;27.40;17.67;;;6.70;1.00;;;;;;7364301;19;20492;-61
2022/03/03 10:41:34;;;;;;;31.92;17.35;;;6.90;1.00;;;;;;7356904;19;20470;-60
2022/03/03 10:44:08;;;;;;;30.33;19.08;;;7.20;1.00;;;;;;7360727;19;20446;-60
2022/03/03 10:46:41;;;;;;;31.83;18.83;;;6.80;1.00;;;;;;7363071;19;20078;-62
2022/03/03 10:49:21;;;;;;;33.65;20.15;;;7.00;1.00;;;;;;7361731;19;20435;-62
2022/03/03 10:51:52;;;;;;;31.52;18.88;;;7.00;1.00;;;;;;7357912;19;20014;-60
2022/03/03 10:54:23;;;;;;;34.78;18.42;;;6.90;1.00;;;;;;7383395;19;20040;-61
2022/03/03 10:57:09;;;;;;;27.73;19.08;;;7.00;1.00;;;;;;7362363;19;20010;-62
2022/03/03 10:59:42;;;;;;;29.42;18.65;;;6.90;1.00;;;;;;7361922;19;20014;-62
2022/03/03 11:02:13;;;;;;;27.63;18.02;;;7.10;1.00;;;;;;7353633;19;20047;-61
2022/03/03 11:04:43;;;;;;;30.73;18.83;;;6.70;1.00;;;;;;7361175;19;20010;-62
2022/03/03 11:07:15;;;;;;;30.90;18.65;;;7.30;1.00;;;;;;7362472;19;20621;-62
2022/03/03 11:09:45;;;;;;;29.40;18.60;;;7.50;1.00;;;;;;7381993;19;20145;-64
2022/03/03 11:12:16;;;;;;;31.30;19.85;;;7.30;1.00;;;;;;7352071;19;20025;-63
2022/03/03 11:14:49;;;;;;;33.70;19.30;;;7.00;1.00;;;;;;7356838;19;20359;-62
2022/03/03 11:17:23;;;;;;;28.63;18.75;;;7.20;1.00;;;;;;7362739;19;20029;-62
2022/03/03 11:19:58;;;;;;;33.55;18.52;;;7.30;1.00;;;;;;7362239;19;20081;-60
2022/03/03 11:22:28;;;;;;;29.75;16.90;;;7.60;1.00;;;;;;7354050;19;20074;-61
2022/03/03 11:25:01;;;;;;;28.88;18.30;;;7.50;1.00;;;;;;7220374;19;2732949;-62
2022/03/03 11:27:36;;;;;;;31.17;17.65;;;7.20;1.00;;;;;;7386420;19;20027;-62
2022/03/03 11:30:30;;;;;;;30.67;18.77;;;7.70;1.00;;;;;;7366567;19;20051;-62
2022/03/03 11:33:22;;;;;;;38.10;17.58;;;8.00;1.00;;;;;;7357285;19;20039;-61
2022/03/03 11:36:00;;;;;;;32.00;19.20;;;8.10;1.00;;;;;;7364030;19;20446;-62
2022/03/03 11:38:45;;;;;;;27.45;18.52;;;8.30;1.00;;;;;;7364115;19;20015;-62
2022/03/03 11:41:15;;;;;;;32.90;18.98;;;8.10;1.00;;;;;;7356829;19;20067;-62
2022/03/03 11:43:49;;;;;;;28.88;17.65;;;8.20;1.00;;;;;;7359678;19;20007;-62
2022/03/03 11:46:50;;;;;;;32.58;18.42;;;8.30;1.00;;;;;;7363758;19;20009;-63
2022/03/03 11:49:22;;;;;;;32.35;19.08;;;8.40;1.00;;;;;;7363089;19;20006;-61
2022/03/03 11:51:53;;;;;;;29.48;18.48;;;8.30;1.00;;;;;;7354331;19;20019;-62
2022/03/03 11:54:28;;;;;;;33.67;19.00;;;8.50;1.00;;;;;;7379641;19;20097;-60
2022/03/03 11:57:27;;;;;;;30.58;19.40;;;8.30;1.00;;;;;;7362816;19;20015;-61
2022/03/03 12:00:03;;;;;;;33.00;19.67;;;8.30;1.00;;;;;;7362581;19;20101;-63
2022/03/03 12:02:40;;;;;;;31.13;18.95;;;8.70;1.00;;;;;;7354259;19;20049;-62
2022/03/03 12:05:34;;;;;;;28.13;18.63;;;8.60;1.00;;;;;;7361426;19;20010;-62
2022/03/03 12:08:06;;;;;;;29.60;19.60;;;8.40;1.00;;;;;;7361936;19;20082;-61
2022/03/03 12:10:38;;;;;;;31.40;19.55;;;8.30;1.00;;;;;;7361057;19;20010;-61
2022/03/03 12:13:27;;;;;;;30.80;19.90;;;8.40;1.00;;;;;;7359432;19;20038;-62
2022/03/03 12:16:21;;;;;;;35.80;21.13;;;8.50;1.00;;;;;;7363857;19;20492;-63
2022/03/03 12:19:15;;;;;;;37.20;19.15;;;8.60;1.00;;;;;;7364880;19;20042;-63
2022/03/03 12:21:46;;;;;;;36.80;19.90;;;8.60;1.00;;;;;;7381000;19;20022;-61
2022/03/03 12:24:32;;;;;;;28.77;18.38;;;8.70;1.00;;;;;;7357418;19;20014;-62
2022/03/03 12:27:15;;;;;;;29.88;19.35;;;8.80;1.00;;;;;;7360930;19;20056;-61
2022/03/03 12:29:59;;;;;;;32.47;20.10;;;8.70;1.00;;;;;;7360687;19;20487;-62
2022/03/03 12:32:47;;;;;;;31.58;19.42;;;8.70;1.00;;;;;;7353217;19;20014;-62
2022/03/03 12:35:30;;;;;;;27.92;18.60;;;8.80;1.00;;;;;;7361328;19;20018;-61
2022/03/03 12:38:04;;;;;;;32.70;20.10;;;9.10;1.00;;;;;;7363843;19;20027;-62
2022/03/03 12:40:35;;;;;;;29.05;19.48;;;8.60;1.00;;;;;;7358895;19;20018;-62
2022/03/03 12:43:12;;;;;;;31.08;20.05;;;8.90;1.00;;;;;;7356991;19;20497;-62
2022/03/03 12:45:43;;;;;;;31.17;19.75;;;9.20;1.00;;;;;;7381629;19;20022;-61
2022/03/03 12:48:13;;;;;;;31.95;20.30;;;9.30;1.00;;;;;;7362410;19;20010;-63
2022/03/03 12:50:47;;;;;;;29.75;19.33;;;9.30;1.00;;;;;;7359296;19;20019;-61
2022/03/03 12:53:18;;;;;;;31.95;19.00;;;9.10;1.00;;;;;;7355341;19;20033;-61
2022/03/03 12:55:49;;;;;;;29.50;18.83;;;9.20;1.00;;;;;;7363184;19;20010;-64
2022/03/03 12:58:21;;;;;;;30.30;20.17;;;9.40;1.00;;;;;;7361169;19;20085;-61
2022/03/03 13:00:53;;;;;;;39.70;21.33;;;9.30;1.00;;;;;;7358046;19;20022;-61
2022/03/03 13:03:24;;;;;;;32.05;20.63;;;9.40;1.00;;;;;;7374869;19;20018;-61
2022/03/03 13:05:59;;;;;;;35.13;19.88;;;9.30;1.00;;;;;;7360802;19;20780;-61
2022/03/03 13:08:31;;;;;;;34.72;20.50;;;9.20;1.00;;;;;;7360794;19;20006;-62